Time;durP1;ratioP1;P1;durP2;ratioP2;P2;SDS_P1;SDS_P2;PMS_P1;PMS_P2;Temp;Humidity;BMP_temperature;BMP_pressure;BME280_temperature;BME280_humidity;BME280_pressure;Samples;Min_cycle;Max_cycle;Signal;HPM_P1;HPM_P2
2023/10/31 00:00:13;;;;;;;0.00;0.00;;;12.00;99.90;;;;;;5092288;28;20295;-59
2023/10/31 00:02:39;;;;;;;0.00;0.00;;;12.00;99.90;;;;;;5093953;28;20187;-59
2023/10/31 00:05:05;;;;;;;0.00;0.00;;;11.90;99.90;;;;;;5093552;28;20190;-59
2023/10/31 00:07:30;;;;;;;0.00;0.00;;;11.90;99.90;;;;;;5093433;28;20233;-60
2023/10/31 00:09:56;;;;;;;0.00;0.00;;;11.80;99.90;;;;;;5093905;28;20264;-59
2023/10/31 00:12:21;;;;;;;0.00;0.00;;;11.80;99.90;;;;;;5093798;28;20589;-60
2023/10/31 00:14:47;;;;;;;0.00;0.00;;;11.70;99.90;;;;;;5093803;28;20292;-60
2023/10/31 00:17:12;;;;;;;0.00;0.00;;;11.70;99.90;;;;;;5093410;28;20602;-60
2023/10/31 00:19:38;;;;;;;0.00;0.00;;;11.60;99.90;;;;;;5093485;28;20210;-60
2023/10/31 00:22:04;;;;;;;0.00;0.00;;;11.60;99.90;;;;;;5093681;28;20180;-60
2023/10/31 00:24:31;;;;;;;0.00;0.00;;;11.60;99.90;;;;;;5093636;28;20309;-60
2023/10/31 00:26:57;;;;;;;0.05;0.05;;;11.60;99.90;;;;;;5093102;28;20210;-60
2023/10/31 00:29:23;;;;;;;0.00;0.00;;;11.60;99.90;;;;;;5093277;28;20627;-60
2023/10/31 00:31:48;;;;;;;0.00;0.00;;;11.50;99.90;;;;;;5093277;28;20556;-61
2023/10/31 00:34:14;;;;;;;0.00;0.00;;;11.50;99.90;;;;;;5093250;28;20651;-59
2023/10/31 00:36:39;;;;;;;0.00;0.00;;;11.50;99.90;;;;;;5091825;28;20233;-60
2023/10/31 00:39:05;;;;;;;0.00;0.00;;;11.50;99.90;;;;;;5092793;28;20218;-60
2023/10/31 00:41:31;;;;;;;0.00;0.00;;;11.40;99.90;;;;;;5092508;28;20557;-60
2023/10/31 00:43:56;;;;;;;0.00;0.00;;;11.40;99.90;;;;;;5093028;28;20200;-60
2023/10/31 00:46:22;;;;;;;0.00;0.00;;;11.30;99.90;;;;;;5092926;28;20188;-59
2023/10/31 00:48:48;;;;;;;0.00;0.00;;;11.30;99.90;;;;;;5092564;28;20222;-60
2023/10/31 00:51:13;;;;;;;0.00;0.00;;;11.30;99.90;;;;;;5092369;28;20191;-60
2023/10/31 00:53:39;;;;;;;0.00;0.00;;;11.20;99.90;;;;;;5092913;28;20237;-60
2023/10/31 00:56:05;;;;;;;0.00;0.00;;;11.20;99.90;;;;;;5092741;28;20647;-60
2023/10/31 00:58:30;;;;;;;0.00;0.00;;;11.20;99.90;;;;;;5091731;28;20516;-60
2023/10/31 01:00:56;;;;;;;0.00;0.00;;;11.10;99.90;;;;;;5092538;28;20219;-60
2023/10/31 01:03:21;;;;;;;0.00;0.00;;;11.10;99.90;;;;;;5091956;28;20183;-60
2023/10/31 01:05:47;;;;;;;0.00;0.00;;;11.10;99.90;;;;;;5092698;28;20180;-60
2023/10/31 01:08:12;;;;;;;0.00;0.00;;;11.00;99.90;;;;;;5092466;28;20173;-60
2023/10/31 01:10:38;;;;;;;0.00;0.00;;;11.00;99.90;;;;;;5091102;28;20528;-60
2023/10/31 01:13:03;;;;;;;0.00;0.00;;;11.00;99.90;;;;;;5091304;28;20206;-59
2023/10/31 01:15:29;;;;;;;0.00;0.00;;;10.90;99.90;;;;;;5090971;28;20172;-60
2023/10/31 01:17:54;;;;;;;0.00;0.00;;;10.90;99.90;;;;;;5090451;28;20309;-60
2023/10/31 01:20:20;;;;;;;0.00;0.00;;;10.90;99.90;;;;;;5091892;28;20220;-60
2023/10/31 01:22:45;;;;;;;0.00;0.00;;;10.80;99.90;;;;;;5092334;28;20186;-60
2023/10/31 01:25:11;;;;;;;0.00;0.00;;;10.80;99.90;;;;;;5092040;28;20207;-59
2023/10/31 01:27:36;;;;;;;0.00;0.00;;;10.80;99.90;;;;;;5091659;28;20654;-59
2023/10/31 01:30:03;;;;;;;0.00;0.00;;;10.80;99.90;;;;;;5090643;28;20552;-59
2023/10/31 01:32:28;;;;;;;0.00;0.00;;;10.70;99.90;;;;;;5091843;28;20210;-60
2023/10/31 01:34:54;;;;;;;0.00;0.00;;;10.70;99.90;;;;;;5092006;28;20200;-59
2023/10/31 01:37:21;;;;;;;0.00;0.00;;;10.70;99.90;;;;;;5090408;28;20176;-60
2023/10/31 01:39:46;;;;;;;0.00;0.00;;;10.60;99.90;;;;;;5091662;28;20547;-59
2023/10/31 01:42:15;;;;;;;0.00;0.00;;;10.70;99.90;;;;;;5091388;28;20179;-60
2023/10/31 01:44:41;;;;;;;0.00;0.00;;;10.70;99.90;;;;;;5091738;28;20803;-60
2023/10/31 01:47:07;;;;;;;0.00;0.00;;;10.70;99.90;;;;;;5091682;28;20180;-61
2023/10/31 01:49:32;;;;;;;0.00;0.00;;;10.70;99.90;;;;;;5091430;28;20200;-59
2023/10/31 01:52:00;;;;;;;0.00;0.00;;;10.70;99.90;;;;;;5091080;28;20176;-59
2023/10/31 01:54:26;;;;;;;0.00;0.00;;;10.70;99.90;;;;;;5090278;28;20514;-59
2023/10/31 01:56:56;;;;;;;0.00;0.00;;;10.70;99.90;;;;;;5091360;28;20188;-59
2023/10/31 01:59:21;;;;;;;0.00;0.00;;;10.70;99.90;;;;;;5091374;28;20268;-59
2023/10/31 02:01:48;;;;;;;0.00;0.00;;;10.70;99.90;;;;;;5091258;28;20182;-60
2023/10/31 02:04:13;;;;;;;0.00;0.00;;;10.80;99.90;;;;;;5090935;28;20271;-60
2023/10/31 02:06:39;;;;;;;0.00;0.00;;;10.80;99.90;;;;;;5091521;28;20255;-60
2023/10/31 02:09:04;;;;;;;0.00;0.00;;;10.80;99.90;;;;;;5090608;28;20172;-59
2023/10/31 02:11:30;;;;;;;0.00;0.00;;;10.70;99.90;;;;;;5089993;28;20184;-60
2023/10/31 02:13:56;;;;;;;0.00;0.00;;;10.70;99.90;;;;;;5091222;28;20203;-60
2023/10/31 02:16:21;;;;;;;0.00;0.00;;;10.70;99.90;;;;;;5091117;28;20180;-60
2023/10/31 02:18:47;;;;;;;0.00;0.00;;;10.70;99.90;;;;;;5090310;28;20180;-60
2023/10/31 02:21:12;;;;;;;0.00;0.00;;;10.60;99.90;;;;;;5091081;28;20222;-59
2023/10/31 02:23:38;;;;;;;0.00;0.00;;;10.60;99.90;;;;;;5091293;28;20184;-59
2023/10/31 02:26:04;;;;;;;0.00;0.00;;;10.60;99.90;;;;;;5091359;28;20191;-60
2023/10/31 02:28:30;;;;;;;0.00;0.00;;;10.60;99.90;;;;;;5090880;28;20528;-60
2023/10/31 02:30:56;;;;;;;0.00;0.00;;;10.60;99.90;;;;;;5091152;28;20254;-60
2023/10/31 02:33:21;;;;;;;0.10;0.10;;;10.60;99.90;;;;;;5090731;28;20215;-60
2023/10/31 02:35:47;;;;;;;0.00;0.00;;;10.50;99.90;;;;;;5091275;28;20188;-58
2023/10/31 02:38:13;;;;;;;0.00;0.00;;;10.50;99.90;;;;;;5090970;28;20180;-60
2023/10/31 02:40:38;;;;;;;0.00;0.00;;;10.50;99.90;;;;;;5090408;28;20302;-59
2023/10/31 02:43:04;;;;;;;0.00;0.00;;;10.50;99.90;;;;;;5090877;28;20165;-59
2023/10/31 02:45:29;;;;;;;0.00;0.00;;;10.50;99.90;;;;;;5090820;28;20643;-60
2023/10/31 02:47:55;;;;;;;0.00;0.00;;;10.40;99.90;;;;;;5089123;28;20258;-59
2023/10/31 02:50:20;;;;;;;0.05;0.05;;;10.40;99.90;;;;;;5090655;28;20214;-59
2023/10/31 02:52:46;;;;;;;0.00;0.00;;;10.40;99.90;;;;;;5090508;28;20183;-59
2023/10/31 02:55:12;;;;;;;0.00;0.00;;;10.40;99.90;;;;;;5090831;28;20267;-59
2023/10/31 02:57:37;;;;;;;0.00;0.00;;;10.40;99.90;;;;;;5089070;28;20542;-60
2023/10/31 03:00:04;;;;;;;0.00;0.00;;;10.30;99.90;;;;;;5090746;28;20208;-60
2023/10/31 03:02:30;;;;;;;0.00;0.00;;;10.30;99.90;;;;;;5089185;28;20233;-60
2023/10/31 03:04:55;;;;;;;0.00;0.00;;;10.30;99.90;;;;;;5090048;28;20184;-59
2023/10/31 03:07:21;;;;;;;1.35;1.25;;;10.30;99.90;;;;;;5090504;28;20176;-59
2023/10/31 03:09:46;;;;;;;0.00;0.00;;;10.30;99.90;;;;;;5090606;28;20176;-59
2023/10/31 03:12:12;;;;;;;0.00;0.00;;;10.30;99.90;;;;;;5088587;28;20263;-61
2023/10/31 03:14:37;;;;;;;0.00;0.00;;;10.30;99.90;;;;;;5090784;28;20211;-59
2023/10/31 03:17:03;;;;;;;0.00;0.00;;;10.30;99.90;;;;;;5090360;28;20198;-60
2023/10/31 03:19:28;;;;;;;0.00;0.00;;;10.40;99.90;;;;;;5090768;28;20200;-59
2023/10/31 03:21:54;;;;;;;0.00;0.00;;;10.40;99.90;;;;;;5092988;28;20188;-59
2023/10/31 03:24:19;;;;;;;0.00;0.00;;;10.40;99.90;;;;;;5094514;28;20298;-60
2023/10/31 03:26:45;;;;;;;0.00;0.00;;;10.40;99.90;;;;;;5093135;28;20199;-59
2023/10/31 03:29:10;;;;;;;0.00;0.00;;;10.40;99.90;;;;;;5093102;28;20191;-60
2023/10/31 03:31:36;;;;;;;0.00;0.00;;;10.40;99.90;;;;;;5094351;28;20199;-59
2023/10/31 03:34:01;;;;;;;0.00;0.00;;;10.40;99.90;;;;;;5094048;28;20299;-59
2023/10/31 03:36:27;;;;;;;0.00;0.00;;;10.40;99.90;;;;;;5094298;28;20774;-59
2023/10/31 03:38:53;;;;;;;0.00;0.00;;;10.40;99.90;;;;;;5093635;28;20274;-59
2023/10/31 03:41:18;;;;;;;0.00;0.00;;;10.40;99.90;;;;;;5094021;28;20635;-60
2023/10/31 03:43:44;;;;;;;0.00;0.00;;;10.40;99.90;;;;;;5091996;28;20216;-60
2023/10/31 03:46:11;;;;;;;0.00;0.00;;;10.40;99.90;;;;;;5093334;28;20187;-59
2023/10/31 03:48:36;;;;;;;0.00;0.00;;;10.50;99.90;;;;;;5094323;28;20191;-59
2023/10/31 03:51:02;;;;;;;0.00;0.00;;;10.40;99.90;;;;;;5093675;28;20194;-60
2023/10/31 03:53:27;;;;;;;0.00;0.00;;;10.50;99.90;;;;;;5093425;28;20180;-59
2023/10/31 03:55:53;;;;;;;0.00;0.00;;;10.50;99.90;;;;;;5093764;28;20176;-59
2023/10/31 03:58:18;;;;;;;0.00;0.00;;;10.50;99.90;;;;;;5093782;28;20172;-60
2023/10/31 04:00:44;;;;;;;0.00;0.00;;;10.50;99.90;;;;;;5093097;28;20216;-60
2023/10/31 04:03:09;;;;;;;0.00;0.00;;;10.50;99.90;;;;;;5093462;28;20241;-60
2023/10/31 04:05:35;;;;;;;0.00;0.00;;;10.40;99.90;;;;;;5093520;28;20183;-59
2023/10/31 04:08:01;;;;;;;0.00;0.00;;;10.40;99.90;;;;;;5093461;28;20172;-60
2023/10/31 04:10:27;;;;;;;0.00;0.00;;;10.50;99.90;;;;;;5093881;28;20181;-60
2023/10/31 04:12:52;;;;;;;0.00;0.00;;;10.50;99.90;;;;;;5093483;28;20619;-58
2023/10/31 04:15:18;;;;;;;0.00;0.00;;;10.50;99.90;;;;;;5093656;28;20192;-61
2023/10/31 04:17:43;;;;;;;0.00;0.00;;;10.50;99.90;;;;;;5093657;28;20282;-60
2023/10/31 04:20:09;;;;;;;0.00;0.00;;;10.50;99.90;;;;;;5093536;28;20243;-61
2023/10/31 04:22:35;;;;;;;0.00;0.00;;;10.50;99.90;;;;;;5093510;28;20233;-60
2023/10/31 04:25:00;;;;;;;0.00;0.00;;;10.50;99.90;;;;;;5093224;28;20511;-59
2023/10/31 04:27:26;;;;;;;0.00;0.00;;;10.50;99.90;;;;;;5093015;28;20635;-60
2023/10/31 04:29:51;;;;;;;0.00;0.00;;;10.60;99.90;;;;;;5091938;28;20657;-59
2023/10/31 04:32:17;;;;;;;0.00;0.00;;;10.60;99.90;;;;;;5092152;28;20563;-60
2023/10/31 04:34:43;;;;;;;0.00;0.00;;;10.60;99.90;;;;;;5092773;28;20230;-60
2023/10/31 04:37:08;;;;;;;0.00;0.00;;;10.60;99.90;;;;;;5092631;28;20172;-59
2023/10/31 04:39:34;;;;;;;0.00;0.00;;;10.60;99.90;;;;;;5090054;28;20207;-60
2023/10/31 04:41:59;;;;;;;0.20;0.20;;;10.60;99.90;;;;;;5093128;28;20184;-60
2023/10/31 04:44:25;;;;;;;0.00;0.00;;;10.60;99.90;;;;;;5092258;28;20173;-60
2023/10/31 04:46:50;;;;;;;0.00;0.00;;;10.60;99.90;;;;;;5093476;28;20536;-62
2023/10/31 04:49:16;;;;;;;0.00;0.00;;;10.60;99.90;;;;;;5092452;28;20698;-63
2023/10/31 04:51:41;;;;;;;0.00;0.00;;;10.60;99.90;;;;;;5093124;28;20187;-59
2023/10/31 04:54:07;;;;;;;0.00;0.00;;;10.60;99.90;;;;;;5093055;28;20188;-59
2023/10/31 04:56:33;;;;;;;0.00;0.00;;;10.60;99.90;;;;;;5092818;28;20640;-59
2023/10/31 04:58:59;;;;;;;0.00;0.00;;;10.50;99.90;;;;;;5092370;28;20176;-64
2023/10/31 05:01:25;;;;;;;0.00;0.00;;;10.60;99.90;;;;;;5092692;28;20905;-62
2023/10/31 05:03:50;;;;;;;0.00;0.00;;;10.50;99.90;;;;;;5086882;28;20681;-63
2023/10/31 05:06:20;;;;;;;0.00;0.00;;;10.50;99.90;;;;;;5091431;28;20180;-62
2023/10/31 05:08:46;;;;;;;0.00;0.00;;;10.50;99.90;;;;;;5092043;28;20255;-63
2023/10/31 05:11:12;;;;;;;0.03;0.03;;;10.50;99.90;;;;;;5093228;28;20180;-62
2023/10/31 05:13:38;;;;;;;0.00;0.00;;;10.50;99.90;;;;;;5093217;28;20188;-62
2023/10/31 05:16:04;;;;;;;0.00;0.00;;;10.50;99.90;;;;;;5093149;28;20667;-62
2023/10/31 05:18:30;;;;;;;0.00;0.00;;;10.50;99.90;;;;;;5093142;28;20172;-62
2023/10/31 05:20:55;;;;;;;0.00;0.00;;;10.50;99.90;;;;;;5093061;28;20691;-61
2023/10/31 05:23:21;;;;;;;0.00;0.00;;;10.50;99.90;;;;;;5093009;28;20602;-62
2023/10/31 05:25:46;;;;;;;0.25;0.25;;;10.50;99.90;;;;;;5092934;28;20176;-62
2023/10/31 05:28:12;;;;;;;0.00;0.00;;;10.50;99.90;;;;;;5092769;28;20168;-62
2023/10/31 05:30:37;;;;;;;0.00;0.00;;;10.50;99.90;;;;;;5091580;28;20199;-62
2023/10/31 05:33:03;;;;;;;0.00;0.00;;;10.60;99.90;;;;;;5092602;28;20252;-61
2023/10/31 05:35:29;;;;;;;0.00;0.00;;;10.60;99.90;;;;;;5091417;28;20168;-62
2023/10/31 05:37:55;;;;;;;0.00;0.00;;;10.60;99.90;;;;;;5092675;28;20182;-62
2023/10/31 05:40:24;;;;;;;0.00;0.00;;;10.50;99.90;;;;;;5092668;28;20208;-62
2023/10/31 05:42:50;;;;;;;0.00;0.00;;;10.50;99.90;;;;;;5092717;28;20176;-62
2023/10/31 05:45:15;;;;;;;0.00;0.00;;;10.50;99.90;;;;;;5092456;28;20176;-62
2023/10/31 05:47:41;;;;;;;0.00;0.00;;;10.50;99.90;;;;;;5092562;28;20175;-62
2023/10/31 05:50:07;;;;;;;0.00;0.00;;;10.50;99.90;;;;;;5092600;28;20181;-63
2023/10/31 05:52:32;;;;;;;0.00;0.00;;;10.50;99.90;;;;;;5092190;28;20188;-63
2023/10/31 05:54:58;;;;;;;0.00;0.00;;;10.50;99.90;;;;;;5092449;28;20251;-63
2023/10/31 05:57:24;;;;;;;0.00;0.00;;;10.50;99.90;;;;;;5092268;28;20663;-62
2023/10/31 05:59:49;;;;;;;0.00;0.00;;;10.50;99.90;;;;;;5092247;28;20562;-63
2023/10/31 06:02:15;;;;;;;0.00;0.00;;;10.40;99.90;;;;;;5092126;28;20653;-62
2023/10/31 06:04:41;;;;;;;0.00;0.00;;;10.40;99.90;;;;;;5092212;28;20725;-62
2023/10/31 06:07:07;;;;;;;0.00;0.00;;;10.40;99.90;;;;;;5092175;28;20180;-63
2023/10/31 06:09:33;;;;;;;0.00;0.00;;;10.30;99.90;;;;;;5092092;28;20259;-62
2023/10/31 06:11:59;;;;;;;0.00;0.00;;;10.30;99.90;;;;;;5092082;28;20655;-61
2023/10/31 06:14:25;;;;;;;0.00;0.00;;;10.30;99.90;;;;;;5091939;28;20589;-61
2023/10/31 06:16:51;;;;;;;0.00;0.00;;;10.30;99.90;;;;;;5092013;28;20225;-62
2023/10/31 06:19:16;;;;;;;0.00;0.00;;;10.30;99.90;;;;;;5091710;28;20546;-62
2023/10/31 06:21:42;;;;;;;0.00;0.00;;;10.30;99.90;;;;;;5092096;28;20642;-62
2023/10/31 06:24:08;;;;;;;0.00;0.00;;;10.30;99.90;;;;;;5091910;28;20255;-62
2023/10/31 06:26:33;;;;;;;0.00;0.00;;;10.30;99.90;;;;;;5091709;28;20176;-63
2023/10/31 06:28:59;;;;;;;0.00;0.00;;;10.30;99.90;;;;;;5091846;28;20227;-62
2023/10/31 06:31:25;;;;;;;0.00;0.00;;;10.30;99.90;;;;;;5091691;28;20176;-63
2023/10/31 06:33:50;;;;;;;0.00;0.00;;;10.30;99.90;;;;;;5091653;28;20250;-61
2023/10/31 06:36:16;;;;;;;0.00;0.00;;;10.30;99.90;;;;;;5091559;28;20198;-61
2023/10/31 06:38:41;;;;;;;0.00;0.00;;;10.30;99.90;;;;;;5090383;28;20271;-62
2023/10/31 06:41:07;;;;;;;0.00;0.00;;;10.40;99.90;;;;;;5091469;28;20283;-61
2023/10/31 06:43:32;;;;;;;0.00;0.00;;;10.40;99.90;;;;;;5091423;28;20298;-62
2023/10/31 06:46:00;;;;;;;0.00;0.00;;;10.40;99.90;;;;;;5091559;28;20168;-62
2023/10/31 06:48:26;;;;;;;0.00;0.00;;;10.40;99.90;;;;;;5091391;28;20167;-62
2023/10/31 06:50:51;;;;;;;0.00;0.00;;;10.50;99.90;;;;;;5091522;28;20252;-62
2023/10/31 06:53:17;;;;;;;0.00;0.00;;;10.50;99.90;;;;;;5090214;28;20180;-62
2023/10/31 06:55:42;;;;;;;0.00;0.00;;;10.50;99.90;;;;;;5093590;28;20221;-62
2023/10/31 06:58:07;;;;;;;0.00;0.00;;;10.50;99.90;;;;;;5098227;28;20179;-62
2023/10/31 07:00:33;;;;;;;0.00;0.00;;;10.50;99.90;;;;;;5097975;28;20288;-62
2023/10/31 07:03:04;;;;;;;0.00;0.00;;;10.50;99.90;;;;;;5098112;28;20278;-62
2023/10/31 07:05:30;;;;;;;0.00;0.00;;;10.50;99.90;;;;;;5098084;28;20175;-62
2023/10/31 07:07:56;;;;;;;0.00;0.00;;;10.60;99.90;;;;;;5097926;28;20175;-62
2023/10/31 07:10:21;;;;;;;0.00;0.00;;;10.60;99.90;;;;;;5097938;28;20176;-62
2023/10/31 07:12:47;;;;;;;0.00;0.00;;;10.60;99.90;;;;;;5098027;28;20174;-62
2023/10/31 07:15:13;;;;;;;0.00;0.00;;;10.60;99.90;;;;;;5097857;28;20251;-63
2023/10/31 07:17:38;;;;;;;0.10;0.10;;;10.60;99.90;;;;;;5096527;28;20172;-63
2023/10/31 07:20:05;;;;;;;0.00;0.00;;;10.60;99.90;;;;;;5097854;28;20759;-63
2023/10/31 07:22:31;;;;;;;0.00;0.00;;;10.60;99.90;;;;;;5098002;28;20187;-63
2023/10/31 07:24:59;;;;;;;0.00;0.00;;;10.60;99.90;;;;;;5097916;28;20168;-63
2023/10/31 07:27:24;;;;;;;0.00;0.00;;;10.70;99.90;;;;;;5097920;28;20183;-64
2023/10/31 07:29:50;;;;;;;0.00;0.00;;;10.70;99.90;;;;;;5096715;28;20172;-63
2023/10/31 07:32:15;;;;;;;0.20;0.17;;;10.70;99.90;;;;;;5096246;28;20306;-63
2023/10/31 07:34:44;;;;;;;0.55;0.55;;;10.70;99.90;;;;;;5097850;28;20183;-63
2023/10/31 07:37:10;;;;;;;0.00;0.00;;;10.80;99.90;;;;;;5096635;28;20180;-63
2023/10/31 07:39:35;;;;;;;0.00;0.00;;;10.80;99.90;;;;;;5097835;28;20658;-62
2023/10/31 07:42:01;;;;;;;0.00;0.00;;;10.80;99.90;;;;;;5097764;28;20184;-63
2023/10/31 07:44:28;;;;;;;0.00;0.00;;;10.80;99.90;;;;;;5097600;28;20881;-62
2023/10/31 07:46:53;;;;;;;0.00;0.00;;;10.90;99.90;;;;;;5097765;28;20176;-62
2023/10/31 07:49:19;;;;;;;0.00;0.00;;;10.90;99.90;;;;;;5097663;28;20275;-62
2023/10/31 07:51:45;;;;;;;0.00;0.00;;;10.90;99.90;;;;;;5096591;28;20259;-63
2023/10/31 07:54:12;;;;;;;0.00;0.00;;;11.00;99.90;;;;;;5097821;28;20180;-63
2023/10/31 07:56:38;;;;;;;0.00;0.00;;;11.00;99.90;;;;;;5097767;28;20399;-62
2023/10/31 07:59:04;;;;;;;0.00;0.00;;;11.10;99.90;;;;;;5097674;28;20168;-62
2023/10/31 08:01:29;;;;;;;0.00;0.00;;;11.10;99.90;;;;;;5097732;28;20191;-64
2023/10/31 08:03:55;;;;;;;0.00;0.00;;;11.20;99.90;;;;;;5097667;28;20655;-62
2023/10/31 08:06:20;;;;;;;0.00;0.00;;;11.20;99.90;;;;;;5097630;28;20222;-62
2023/10/31 08:08:46;;;;;;;0.00;0.00;;;11.20;99.90;;;;;;5093150;28;20220;-62
2023/10/31 08:11:11;;;;;;;0.00;0.00;;;11.30;99.90;;;;;;5094656;28;20576;-62
2023/10/31 08:13:40;;;;;;;0.00;0.00;;;11.40;99.90;;;;;;5094404;28;20231;-62
2023/10/31 08:16:06;;;;;;;0.00;0.00;;;11.40;99.90;;;;;;5094578;28;20255;-62
2023/10/31 08:18:32;;;;;;;0.00;0.00;;;11.50;99.90;;;;;;5094375;28;20536;-62
2023/10/31 08:20:57;;;;;;;0.00;0.00;;;11.50;99.90;;;;;;5094116;28;20207;-62
2023/10/31 08:23:25;;;;;;;0.00;0.00;;;11.50;99.90;;;;;;5094234;28;20206;-62
2023/10/31 08:25:50;;;;;;;1.55;0.20;;;11.60;99.90;;;;;;5094185;28;20180;-62
2023/10/31 08:28:16;;;;;;;0.20;0.10;;;11.60;99.90;;;;;;5094003;28;20184;-62
2023/10/31 08:30:42;;;;;;;0.00;0.00;;;11.50;99.90;;;;;;5093991;28;20187;-62
2023/10/31 08:33:07;;;;;;;0.00;0.00;;;11.50;99.90;;;;;;5093859;28;20222;-62
2023/10/31 08:35:33;;;;;;;0.00;0.00;;;11.50;99.90;;;;;;5093762;28;20186;-62
2023/10/31 08:37:58;;;;;;;0.00;0.00;;;11.50;99.90;;;;;;5094010;28;20206;-62
2023/10/31 08:40:24;;;;;;;0.00;0.00;;;11.60;99.90;;;;;;5093696;28;20239;-63
2023/10/31 08:42:49;;;;;;;0.00;0.00;;;11.60;99.90;;;;;;5093745;28;20179;-63
2023/10/31 08:45:15;;;;;;;0.00;0.00;;;11.70;99.90;;;;;;5093413;28;20274;-63
2023/10/31 08:47:41;;;;;;;0.10;0.10;;;11.80;99.90;;;;;;5093575;28;20200;-62
2023/10/31 08:50:11;;;;;;;0.00;0.00;;;11.80;99.90;;;;;;5093619;28;20263;-62
2023/10/31 08:52:37;;;;;;;0.00;0.00;;;11.90;99.90;;;;;;5093403;28;20658;-63
2023/10/31 08:55:03;;;;;;;0.00;0.00;;;12.00;99.90;;;;;;5093516;28;20183;-63
2023/10/31 08:57:29;;;;;;;0.00;0.00;;;12.10;99.90;;;;;;5093354;28;20739;-62
2023/10/31 08:59:54;;;;;;;0.00;0.00;;;12.20;99.90;;;;;;5093280;28;20307;-64
2023/10/31 09:02:20;;;;;;;0.00;0.00;;;12.30;99.90;;;;;;5093354;28;20226;-63
2023/10/31 09:04:45;;;;;;;0.00;0.00;;;12.30;99.90;;;;;;5093473;28;20195;-63
2023/10/31 09:07:11;;;;;;;0.00;0.00;;;12.40;99.90;;;;;;5093172;28;20237;-63
2023/10/31 09:09:37;;;;;;;0.00;0.00;;;12.40;99.90;;;;;;5093078;28;20165;-63
2023/10/31 09:12:03;;;;;;;0.00;0.00;;;12.50;99.90;;;;;;5093203;28;20176;-63
2023/10/31 09:14:28;;;;;;;0.00;0.00;;;12.60;99.90;;;;;;5093063;28;20202;-63
2023/10/31 09:16:54;;;;;;;0.00;0.00;;;12.60;99.90;;;;;;5092747;28;20247;-63
2023/10/31 09:19:19;;;;;;;0.00;0.00;;;12.60;99.90;;;;;;5092518;28;20183;-62
2023/10/31 09:21:45;;;;;;;0.00;0.00;;;12.70;99.90;;;;;;5092895;28;20304;-61
2023/10/31 09:24:11;;;;;;;0.00;0.00;;;12.80;99.90;;;;;;5092954;28;20173;-63
2023/10/31 09:26:37;;;;;;;0.00;0.00;;;12.90;99.90;;;;;;5092800;28;20244;-62
2023/10/31 09:29:03;;;;;;;0.00;0.00;;;13.10;99.90;;;;;;5092921;28;20172;-62
2023/10/31 09:31:29;;;;;;;0.00;0.00;;;13.20;99.90;;;;;;5092824;28;20251;-63
2023/10/31 09:33:54;;;;;;;0.00;0.00;;;13.40;99.90;;;;;;5092461;28;20779;-62
2023/10/31 09:36:20;;;;;;;0.00;0.00;;;13.50;99.90;;;;;;5092542;28;20270;-63
2023/10/31 09:38:45;;;;;;;0.00;0.00;;;13.50;99.90;;;;;;5092739;28;20255;-63
2023/10/31 09:41:13;;;;;;;0.00;0.00;;;13.60;99.90;;;;;;5092558;28;20212;-63
2023/10/31 09:43:38;;;;;;;0.00;0.00;;;13.70;99.90;;;;;;5092770;28;20168;-62
2023/10/31 09:46:05;;;;;;;0.00;0.00;;;13.90;99.90;;;;;;5092520;28;20182;-61
2023/10/31 09:48:32;;;;;;;0.00;0.00;;;13.80;99.90;;;;;;5092485;28;20234;-62
2023/10/31 09:50:58;;;;;;;0.00;0.00;;;13.70;99.90;;;;;;5092458;28;20591;-62
2023/10/31 09:53:24;;;;;;;0.00;0.00;;;13.60;99.90;;;;;;5091151;28;20176;-61
2023/10/31 09:55:51;;;;;;;0.00;0.00;;;13.50;99.90;;;;;;5091136;28;20262;-63
2023/10/31 09:58:17;;;;;;;0.00;0.00;;;13.40;99.90;;;;;;5092315;28;20792;-62
2023/10/31 10:00:43;;;;;;;0.00;0.00;;;13.30;99.90;;;;;;5092212;28;20615;-61
2023/10/31 10:03:09;;;;;;;0.00;0.00;;;13.30;99.90;;;;;;5092491;28;20207;-63
2023/10/31 10:05:35;;;;;;;0.00;0.00;;;13.20;99.90;;;;;;5091978;28;20225;-62
2023/10/31 10:08:01;;;;;;;0.00;0.00;;;13.20;99.90;;;;;;5090858;28;20210;-62
2023/10/31 10:10:27;;;;;;;0.00;0.00;;;13.20;99.90;;;;;;5092056;28;20180;-63
2023/10/31 10:12:52;;;;;;;0.00;0.00;;;13.20;99.90;;;;;;5092087;28;20215;-62
2023/10/31 10:15:18;;;;;;;0.00;0.00;;;13.20;99.90;;;;;;5092007;28;20215;-63
2023/10/31 10:17:51;;;;;;;0.00;0.00;;;13.30;99.90;;;;;;5092015;28;20175;-62
2023/10/31 10:20:18;;;;;;;0.00;0.00;;;13.30;99.90;;;;;;5091735;28;20247;-62
2023/10/31 10:22:44;;;;;;;0.00;0.00;;;13.30;99.90;;;;;;5091844;28;20179;-62
2023/10/31 10:25:15;;;;;;;0.00;0.00;;;13.30;99.90;;;;;;5091871;28;20552;-62
2023/10/31 10:27:41;;;;;;;0.00;0.00;;;13.40;99.90;;;;;;5091853;28;20179;-62
2023/10/31 10:30:08;;;;;;;0.00;0.00;;;13.40;99.90;;;;;;5091312;28;20171;-62
2023/10/31 10:32:33;;;;;;;0.00;0.00;;;13.20;99.90;;;;;;5091263;28;20224;-62
2023/10/31 10:35:00;;;;;;;0.00;0.00;;;13.20;99.90;;;;;;5090373;28;20183;-62
2023/10/31 10:37:27;;;;;;;0.00;0.00;;;13.20;99.90;;;;;;5091650;28;20227;-63
2023/10/31 10:39:56;;;;;;;0.10;0.10;;;13.10;99.90;;;;;;5091613;28;20291;-62
2023/10/31 10:42:35;;;;;;;0.00;0.00;;;13.20;99.90;;;;;;5091559;28;20199;-61
2023/10/31 10:45:04;;;;;;;0.00;0.00;;;13.30;99.90;;;;;;5091581;28;20172;-62
2023/10/31 10:47:34;;;;;;;0.00;0.00;;;13.40;99.90;;;;;;5091527;28;20301;-62
2023/10/31 10:50:01;;;;;;;0.00;0.00;;;13.40;99.90;;;;;;5091627;28;20175;-62
2023/10/31 10:52:45;;;;;;;0.00;0.00;;;13.50;99.90;;;;;;5091494;28;20277;-62
2023/10/31 10:55:22;;;;;;;0.00;0.00;;;13.60;99.90;;;;;;5091523;28;20175;-62
2023/10/31 10:58:19;;;;;;;0.00;0.00;;;13.60;99.90;;;;;;5091583;28;20199;-62
2023/10/31 11:00:45;;;;;;;0.00;0.00;;;13.60;99.90;;;;;;5091462;28;20211;-63
2023/10/31 11:03:10;;;;;;;0.00;0.00;;;13.50;99.90;;;;;;5091456;28;20631;-63
2023/10/31 11:05:36;;;;;;;0.00;0.00;;;13.50;99.90;;;;;;5091302;28;20184;-62
2023/10/31 11:08:03;;;;;;;0.00;0.00;;;13.40;99.90;;;;;;5091373;28;20218;-62
2023/10/31 11:10:29;;;;;;;0.00;0.00;;;13.30;99.90;;;;;;5091439;28;20172;-62
2023/10/31 11:12:56;;;;;;;0.00;0.00;;;13.30;99.90;;;;;;5091270;28;20172;-62
2023/10/31 11:15:23;;;;;;;0.00;0.00;;;13.30;99.90;;;;;;5091295;28;20263;-63
2023/10/31 11:17:50;;;;;;;0.00;0.00;;;13.40;99.90;;;;;;5089987;28;20652;-62
2023/10/31 11:20:16;;;;;;;0.00;0.00;;;13.50;99.90;;;;;;5090992;28;20214;-62
2023/10/31 11:22:49;;;;;;;0.00;0.00;;;13.60;99.90;;;;;;5091233;28;20180;-63
2023/10/31 11:25:24;;;;;;;0.00;0.00;;;13.70;99.90;;;;;;5091224;28;20208;-62
2023/10/31 11:28:09;;;;;;;0.00;0.00;;;13.80;99.90;;;;;;5091418;28;20258;-62
2023/10/31 11:30:35;;;;;;;0.00;0.00;;;13.90;99.90;;;;;;5091142;28;20270;-62
2023/10/31 11:33:02;;;;;;;0.00;0.00;;;14.00;99.90;;;;;;5091027;28;20220;-62
2023/10/31 11:35:33;;;;;;;0.00;0.00;;;14.10;99.90;;;;;;5091195;28;20184;-62
2023/10/31 11:38:06;;;;;;;0.00;0.00;;;14.10;99.90;;;;;;5091230;28;20200;-62
2023/10/31 11:40:33;;;;;;;0.00;0.00;;;14.10;99.90;;;;;;5091138;28;20294;-62
2023/10/31 11:43:03;;;;;;;0.00;0.00;;;14.00;99.90;;;;;;5092528;28;20207;-63
2023/10/31 11:45:44;;;;;;;0.00;0.00;;;13.90;99.90;;;;;;5095045;28;20203;-63
2023/10/31 11:48:10;;;;;;;0.32;0.32;;;13.80;99.90;;;;;;5094986;28;20543;-63
2023/10/31 11:50:37;;;;;;;0.00;0.00;;;13.80;99.90;;;;;;5094771;28;20662;-63
2023/10/31 11:53:07;;;;;;;0.00;0.00;;;13.80;99.90;;;;;;5094898;28;20200;-63
2023/10/31 11:55:38;;;;;;;0.00;0.00;;;13.80;99.90;;;;;;5094579;28;20704;-62
2023/10/31 11:58:21;;;;;;;0.00;0.00;;;13.70;99.90;;;;;;5094819;28;20176;-63
2023/10/31 12:00:49;;;;;;;0.00;0.00;;;13.70;99.90;;;;;;5094671;28;20222;-62
2023/10/31 12:03:17;;;;;;;0.00;0.00;;;13.70;99.90;;;;;;5094487;28;20226;-62
2023/10/31 12:06:12;;;;;;;0.10;0.10;;;13.60;99.90;;;;;;5094649;28;20176;-62
2023/10/31 12:08:39;;;;;;;0.00;0.00;;;13.60;99.90;;;;;;5076930;28;20195;-62
2023/10/31 12:11:12;;;;;;;0.00;0.00;;;13.60;99.90;;;;;;5094404;28;20555;-62
2023/10/31 12:13:39;;;;;;;0.00;0.00;;;13.60;99.90;;;;;;5093160;28;20631;-62
2023/10/31 12:16:06;;;;;;;0.00;0.00;;;13.60;99.90;;;;;;5094403;28;20650;-62
2023/10/31 12:18:34;;;;;;;0.00;0.00;;;13.70;99.90;;;;;;5094289;28;20403;-63
2023/10/31 12:21:01;;;;;;;0.00;0.00;;;13.80;99.90;;;;;;5094250;28;20299;-62
2023/10/31 12:23:27;;;;;;;0.00;0.00;;;13.80;99.90;;;;;;5094247;28;20659;-63
2023/10/31 12:25:53;;;;;;;0.00;0.00;;;13.80;99.90;;;;;;5094177;28;20211;-63
2023/10/31 12:28:20;;;;;;;0.00;0.00;;;13.70;99.90;;;;;;5094236;28;20187;-63
2023/10/31 12:30:48;;;;;;;0.00;0.00;;;13.60;99.90;;;;;;5094186;28;20199;-64
2023/10/31 12:33:13;;;;;;;0.00;0.00;;;13.50;99.90;;;;;;5093815;28;20307;-63
2023/10/31 12:35:39;;;;;;;0.00;0.00;;;13.50;99.90;;;;;;5093981;28;20270;-63
2023/10/31 12:38:06;;;;;;;0.00;0.00;;;13.50;99.90;;;;;;5094035;28;20205;-63
2023/10/31 12:40:32;;;;;;;0.00;0.00;;;13.50;99.90;;;;;;5093866;28;20220;-63
2023/10/31 12:42:59;;;;;;;0.00;0.00;;;13.50;99.90;;;;;;5093898;28;20207;-62